baixa temperatura extrema Des de: 23-02-2018 00:00 Fins: 09:59 advert√®ncia per a: baixa temperatura extrema Nivell: Groc info button
 





My webcam more information My webcam


Meteosat more information Meteosat


Radar de pluja more information rain snow radar


Visita la nostra xarxa de llocs de meteo:

Template documentation
and downloads

And another site


Trobareu la nostra informacio del temps tambe a:

European Weather Network

WeatherCloud

Weather Underground

Meteoclimatic



Nearby METAR Reports

   
LERS - Reus
Actualitzacio: 23-02-2018 05:00
Clar  
Clar  
   Vent: varia 1.9 km/h
Vent: varia 1.9 km/h
Temperatura: 1°C
Punt de rosada: -3°C
Humitat: 75%
Barometre: 1006 hPa
Nuvols: Clar
Visibilitat: More than 10 km
Cloud details: Clar
LERS 230400Z AUTO VRB01KT 9999 NCD 01/M03 Q1006
LEDA - Lleida
Actualitzacio: 18-02-2018 17:30
NO actual
Nuvols dispersos  
Nuvols dispersos  
   Vent: West 9.3 km/h
Vent: West 9.3 km/h
Temperatura: 12°C
Punt de rosada: 0°C
Humitat: 44%
Barometre: 1019 hPa
Nuvols: Nuvols dispersos
Visibilitat: More than 10 km
Cloud details: Nuvols dispersos 3500 ft
LEDA 181630Z 26005KT 9999 FEW035 12/M00 Q1019
LEGE - Girona
Actualitzacio: 23-02-2018 05:00
Clar  
Clar  
   Vent: varia 1.9 km/h
Vent: varia 1.9 km/h
Temperatura: 3°C
Punt de rosada: 1°C
Humitat: 87%
Barometre: 1006 hPa
Nuvols: Clar
Visibilitat: 7 km
Cloud details: Clar 4900 ft
LEGE 230400Z VRB01KT 7000 OVC049 03/01 Q1006
LEMH - Mahon
Actualitzacio: 23-02-2018 05:00
Nuvols dispersos  
Nuvols dispersos  
   Vent: NNE 18.5 km/h
Vent: NNE 18.5 km/h
Temperatura: 7°C
Termica: 4°C
Punt de rosada: 3°C
Humitat: 76%
Barometre: 1004 hPa
Nuvols: Nuvols dispersos
Visibilitat: 7 km
Cloud details: Nuvols dispersos 2400 ft
LEMH 230400Z AUTO 02010KT 7000 FEW024/// 07/03 Q1004
LFMK - Carcassonne
Actualitzacio: 23-02-2018 05:00
Parcialment tapat  
Parcialment tapat  
   Vent: West 9.3 km/h
Vent: West 9.3 km/h
Temperatura: 0°C
Termica: -3°C
Punt de rosada: -3°C
Humitat: 80%
Barometre: 1008 hPa
Nuvols: Parcialment tapat
Visibilitat: 8 km
Cloud details: Parcialment tapat
LFMK 230400Z AUTO 28005KT 240V300 8000 NSC 00/M03 Q1008 NOSIG
 

Guio original per  Saratoga-weather.org Adaptat per a la plantilla per  Weerstation Leuven

Equip utilitzat:

Weather-program
Weewx

Weather-server
RaspberryPI 2

Proveidor

Weewx

RaspberryPI 2




Código de ejemplo | Política de Cookies
OK| Solicitamos su permiso para obtener datos estadísticos de su navegación en esta web, en cumplimiento del Real Decreto-ley 13/2012. Si continúa navegando consideramos que acepta el uso de cookies. | Más información